Latest Weather Observations for Ceduna

IDS60801

Issued at 12:32 pm CDT Monday 30 March 2015 (issued every 30 minutes, with the page automatically refreshed every 10 minutes)

About weather observations | Map of weather stations | Latest weather observations for SA | Other Formats
Station Details ID: 018012 Name: CEDUNA AMO Lat: -32.13 Lon: 133.70 Height: 15.3 m
Data from the previous 72 hours. | See also: Recent months at Ceduna
Date/Time
CDT
Temp
°C
App
Temp
°C
Dew
Point
Rel
Hum
%
Delta-T
°C
Wind Press
QNH
hPa
Press
MSL
hPa
Rain
since 9 am
mm
Dir
 
Spd
km/h
Gust
km/h
Spd
kts
Gust
kts
30/12:30pm 30.2 27.4 8.6 26 11.9 NW 13 20 7 11 1022.2 1022.2 0.0
30/12:00pm 29.7 27.2 9.8 29 11.2 NW 13 19 7 10 1022.7 1022.7 0.0
30/11:30am 28.5 25.4 8.7 29 10.8 NNW 15 22 8 12 1023.0 1023.0 0.0
30/11:00am 28.3 25.3 9.1 30 10.6 N 15 22 8 12 1023.3 1023.3 0.0
30/10:30am 25.5 23.1 10.1 38 8.5 NE 13 17 7 9 1023.6 1023.6 0.0
30/10:00am 23.6 21.5 9.6 41 7.6 NE 11 17 6 9 1023.6 1023.6 0.0
30/09:30am 20.5 19.0 10.6 53 5.4 NE 9 13 5 7 1023.5 1023.5 0.0
30/09:00am 15.9 14.5 9.6 66 3.3 E 7 11 4 6 1023.2 1023.2 0.0
30/08:30am 12.8 12.6 9.1 78 1.9 CALM 0 0 0 0 1023.0 1023.0 0.0
30/08:00am 9.8 9.0 6.3 79 1.6 CALM 0 0 0 0 1022.6 1022.6 0.0
30/07:30am 10.4 9.7 7.1 80 1.6 CALM 0 0 0 0 1022.2 1022.2 0.0
30/07:00am 10.7 9.8 7.9 83 1.4 E 2 6 1 3 1021.9 1021.9 0.0
30/06:30am 9.7 7.5 6.4 80 1.5 E 7 9 4 5 1021.7 1021.7 0.0
30/06:00am 10.3 8.4 7.7 84 1.2 NE 7 9 4 5 1021.7 1021.7 0.0
30/05:30am 10.6 8.8 7.3 80 1.6 NE 6 7 3 4 1021.5 1021.5 0.0
30/05:00am 11.0 9.3 7.7 80 1.6 ENE 6 7 3 4 1021.5 1021.5 0.0
30/04:30am 11.3 9.1 8.0 80 1.6 ESE 9 11 5 6 1021.5 1021.5 0.0
30/04:00am 12.1 10.7 8.8 80 1.6 ESE 6 7 3 4 1021.5 1021.5 0.0
30/03:30am 12.4 11.7 8.5 77 1.9 SE 2 7 1 4 1021.6 1021.6 0.0
30/03:00am 13.4 12.1 9.3 76 2.1 SSE 6 6 3 3 1021.9 1021.9 0.0
30/02:30am 14.0 12.2 9.4 74 2.3 SE 9 11 5 6 1022.0 1022.0 0.0
30/02:00am 14.2 11.6 9.4 73 2.5 ESE 13 15 7 8 1022.0 1022.0 0.0
30/01:30am 15.2 12.0 9.8 70 2.8 ESE 17 19 9 10 1022.1 1022.1 0.0
30/01:00am 14.8 12.5 10.4 75 2.3 ESE 13 17 7 9 1022.4 1022.4 0.0
30/12:30am 14.8 12.5 10.6 76 2.2 SE 13 15 7 8 1022.5 1022.5 0.0
30/12:00am 15.1 12.8 10.3 73 2.5 ESE 13 17 7 9 1022.7 1022.7 0.0
 
Date/Time
CDT
Temp
°C
App
Temp
°C
Dew
Point
Rel
Hum
%
Delta-T
°C
Wind Press
QNH
hPa
Press
MSL
hPa
Rain
since 9 am
mm
Dir
 
Spd
km/h
Gust
km/h
Spd
kts
Gust
kts
29/11:30pm 15.0 12.9 9.8 71 2.7 ESE 11 13 6 7 1022.8 1022.8 0.0
29/11:00pm 16.2 13.8 10.1 67 3.2 ESE 13 15 7 8 1022.5 1022.5 0.0
29/10:30pm 17.6 15.3 11.6 68 3.3 SE 15 19 8 10 1022.5 1022.5 0.0
29/10:00pm 16.9 15.3 11.6 71 2.9 ESE 11 15 6 8 1022.5 1022.5 0.0
29/09:30pm 18.8 17.1 12.5 67 3.5 SE 13 17 7 9 1022.2 1022.2 0.0
29/09:00pm 19.2 17.3 11.7 62 4.1 SE 13 19 7 10 1021.9 1021.9 0.0
29/08:30pm 19.8 17.4 11.3 58 4.7 SE 15 19 8 10 1021.5 1021.5 0.0
29/08:00pm 20.2 18.6 12.9 63 4.1 SSE 13 17 7 9 1021.2 1021.2 0.0
29/07:30pm 21.1 18.6 13.5 62 4.4 SSE 19 24 10 13 1020.9 1020.9 0.0
29/07:00pm 21.9 17.6 12.2 54 5.5 SSE 26 33 14 18 1020.6 1020.6 0.0
29/06:30pm 22.7 17.8 11.4 49 6.3 SSE 28 37 15 20 1020.4 1020.4 0.0
29/06:00pm 24.0 19.1 9.9 41 7.7 S 26 35 14 19 1020.2 1020.2 0.0
29/05:30pm 24.6 18.9 9.7 39 8.1 S 30 33 16 18 1020.1 1020.1 0.0
29/05:00pm 25.5 19.7 8.1 33 9.3 S 28 32 15 17 1020.0 1020.0 0.0
29/04:30pm 26.4 20.9 7.4 30 10.1 S 26 32 14 17 1020.1 1020.1 0.0
29/04:00pm 26.3 20.4 7.4 30 10.0 S 28 33 15 18 1020.1 1020.1 0.0
29/03:30pm 27.2 21.7 6.0 26 11.0 SSW 24 30 13 16 1020.2 1020.2 0.0
29/03:00pm 27.6 22.9 5.2 24 11.5 SSW 19 22 10 12 1020.6 1020.6 0.0
29/02:30pm 27.2 22.3 4.3 23 11.5 SSW 19 24 10 13 1021.0 1021.0 0.0
29/02:00pm 27.6 23.3 6.9 27 11.0 SSW 19 22 10 12 1021.4 1021.4 0.0
29/01:30pm 26.9 23.1 5.8 26 10.9 SSW 15 20 8 11 1021.8 1021.8 0.0
29/01:00pm 26.3 22.0 6.9 29 10.2 SSW 19 22 10 12 1022.1 1022.1 0.0
29/12:30pm 25.2 21.1 6.4 30 9.7 SW 17 20 9 11 1022.3 1022.3 0.0
29/12:00pm 25.7 23.5 6.3 29 10.0 NNW 7 17 4 9 1022.5 1022.5 0.0
29/11:30am 26.1 23.9 5.1 26 10.6 NE 6 13 3 7 1022.6 1022.6 0.0
29/11:00am 24.8 22.6 5.1 28 9.9 NE 6 11 3 6 1022.8 1022.8 0.0
29/10:30am 23.2 21.3 6.5 34 8.5 ENE 6 9 3 5 1022.9 1022.9 0.0
29/10:00am 21.0 18.8 6.2 38 7.4 ESE 7 9 4 5 1022.9 1022.9 0.0
29/09:30am 19.7 17.5 7.8 46 6.1 SE 9 13 5 7 1022.7 1022.7 0.0
29/09:00am 17.0 14.8 7.9 55 4.6 SE 9 9 5 5 1022.2 1022.2 0.0
29/08:30am 15.8 14.5 7.8 59 4.0 SE 4 6 2 3 1022.0 1022.0 0.0
29/08:00am 15.7 13.3 7.2 57 4.2 SE 9 9 5 5 1021.4 1021.4 0.0
29/07:30am 16.3 14.5 7.0 54 4.6 SSE 6 7 3 4 1021.1 1021.1 0.0
29/07:00am 16.9 16.3 7.5 54 4.7 CALM 0 0 0 0 1020.8 1020.8 0.0
29/06:30am 16.8 16.3 7.7 55 4.6 CALM 0 0 0 0 1020.6 1020.6 0.0
29/06:00am 16.6 16.1 7.8 56 4.4 CALM 0 0 0 0 1020.1 1020.1 0.0
29/05:30am 16.8 16.3 8.0 56 4.4 CALM 0 0 0 0 1020.3 1020.3 0.0
29/05:00am 16.7 15.7 7.4 54 4.6 NNE 2 6 1 3 1020.3 1020.3 0.0
29/04:30am 17.3 15.0 7.6 53 4.9 NNE 9 11 5 6 1020.2 1020.2 0.0
29/04:00am 18.3 16.6 7.7 50 5.4 NE 6 7 3 4 1020.3 1020.3 0.0
29/03:30am 18.3 16.4 7.4 49 5.5 NE 7 11 4 6 1020.3 1020.3 0.0
29/03:00am 18.0 16.1 7.7 51 5.2 ESE 7 11 4 6 1020.5 1020.5 0.0
29/02:30am 18.3 16.6 7.7 50 5.4 ENE 6 7 3 4 1020.9 1020.9 0.0
29/02:00am 18.6 18.1 7.7 49 5.6 CALM 0 0 0 0 1021.0 1021.0 0.0
29/01:30am 18.9 18.0 7.7 48 5.7 SSE 2 6 1 3 1021.0 1021.0 0.0
29/01:00am 19.1 18.5 7.5 47 5.9 CALM 0 0 0 0 1021.3 1021.3 0.0
29/12:30am 19.7 17.1 7.8 46 6.1 ENE 11 13 6 7 1021.1 1021.1 0.0
29/12:00am 19.7 16.9 8.4 48 5.9 ENE 13 15 7 8 1021.3 1021.3 0.0
 
Date/Time
CDT
Temp
°C
App
Temp
°C
Dew
Point
Rel
Hum
%
Delta-T
°C
Wind Press
QNH
hPa
Press
MSL
hPa
Rain
since 9 am
mm
Dir
 
Spd
km/h
Gust
km/h
Spd
kts
Gust
kts
28/11:30pm 19.5 17.3 9.4 52 5.3 ENE 11 13 6 7 1021.6 1021.6 0.0
28/11:00pm 19.4 18.5 10.7 57 4.7 NE 6 7 3 4 1021.7 1021.7 0.0
28/10:30pm 19.4 18.0 10.9 58 4.6 ENE 9 11 5 6 1021.3 1021.3 0.0
28/10:00pm 19.5 18.4 11.8 61 4.3 ESE 9 11 5 6 1021.3 1021.3 0.0
28/09:30pm 19.8 17.9 11.8 60 4.4 ESE 13 17 7 9 1021.0 1021.0 0.0
28/09:00pm 20.0 18.5 10.4 54 5.2 SE 9 11 5 6 1021.0 1021.0 0.0
28/08:30pm 20.4 18.4 10.2 52 5.5 SE 11 15 6 8 1020.5 1020.5 0.0
28/08:00pm 20.7 18.5 9.3 48 6.1 SSE 11 13 6 7 1020.5 1020.5 0.0
28/07:30pm 21.8 19.3 8.0 41 7.2 SSE 11 13 6 7 1020.5 1020.5 0.0
28/07:00pm 22.4 19.9 6.6 36 8.1 SSE 9 11 5 6 1020.4 1020.4 0.0
28/06:30pm 22.3 20.2 6.5 36 8.0 SE 7 11 4 6 1020.0 1020.0 0.0
28/06:00pm 22.4 20.0 7.0 37 7.9 SSE 9 11 5 6 1020.3 1020.3 0.0
28/05:30pm 22.1 19.2 6.7 37 7.8 S 11 13 6 7 1020.2 1020.2 0.0
28/05:00pm 23.2 20.5 5.6 32 8.9 SW 9 13 5 7 1020.2 1020.2 0.0
28/04:30pm 23.4 19.0 4.9 30 9.2 SSW 17 19 9 10 1020.0 1020.0 0.0
28/04:00pm 24.2 21.8 5.1 29 9.6 WSW 7 13 4 7 1020.2 1020.2 0.0
28/03:30pm 24.3 20.7 5.1 29 9.6 W 13 17 7 9 1020.3 1020.3 0.0
28/03:00pm 24.0 20.1 5.4 30 9.4 W 15 20 8 11 1020.6 1020.6 0.0
28/02:30pm 23.8 19.9 5.2 30 9.3 NW 15 20 8 11 1021.1 1021.1 0.0
28/02:00pm 22.9 18.6 5.3 32 8.8 NNW 17 22 9 12 1021.4 1021.4 0.0
28/01:30pm 22.1 17.5 5.5 34 8.3 N 19 26 10 14 1021.9 1021.9 0.0
28/01:00pm 21.3 16.8 6.8 39 7.4 N 20 28 11 15 1022.1 1022.1 0.0
28/12:30pm 20.7 15.4 6.6 40 7.1 N 24 28 13 15 1022.5 1022.5 0.0
28/12:00pm 20.1 14.4 6.8 42 6.7 N 26 30 14 16 1022.9 1022.9 0.0
28/11:30am 18.9 14.4 8.6 51 5.3 NNE 22 30 12 16 1023.1 1023.1 0.0
28/11:00am 17.8 13.8 8.9 56 4.6 NNE 20 28 11 15 1023.5 1023.5 0.0
28/10:30am 17.1 13.1 9.0 59 4.2 NNE 20 32 11 17 1023.9 1023.9 0.0
28/10:00am 16.8 13.0 9.2 61 3.9 NNE 19 26 10 14 1023.9 1023.9 0.0
28/09:30am 15.5 12.5 9.2 66 3.2 NNE 15 19 8 10 1024.0 1024.0 0.0
28/09:00am 14.0 12.0 8.6 70 2.7 NNE 9 11 5 6 1023.8 1023.8 0.0
28/08:30am 12.9 10.4 8.0 72 2.4 NNE 11 15 6 8 1023.5 1023.5 0.0
28/08:00am 12.9 9.2 8.0 72 2.4 NE 17 22 9 12 1023.1 1023.1 0.0
28/07:30am 12.8 9.1 8.1 73 2.3 NE 17 20 9 11 1022.7 1022.7 0.0
28/07:00am 11.2 7.6 8.4 83 1.4 ENE 17 19 9 10 1022.5 1022.5 0.0
28/06:30am 10.8 7.3 8.7 87 1.0 ENE 17 20 9 11 1022.4 1022.4 0.0
28/06:00am 10.6 7.5 9.0 90 0.8 ENE 15 19 8 10 1022.4 1022.4 0.0
28/05:30am 10.3 8.4 9.1 92 0.6 NE 9 11 5 6 1022.6 1022.6 0.0
28/05:00am 9.1 6.9 8.0 93 0.5 ENE 9 13 5 7 1022.5 1022.5 0.0
28/04:30am 8.5 6.5 7.1 91 0.7 E 7 9 4 5 1022.7 1022.7 0.0
28/04:00am 8.7 6.7 7.2 90 0.7 NE 7 9 4 5 1023.2 1023.2 0.0
28/03:30am 10.1 8.5 8.7 91 0.7 N 7 11 4 6 1023.6 1023.6 0.0
28/03:00am 10.4 8.1 9.0 91 0.7 NNE 11 13 6 7 1023.8 1023.8 0.0
28/02:30am 10.3 8.3 8.6 89 0.8 NE 9 11 5 6 1024.1 1024.1 0.0
28/02:00am 10.1 8.9 8.2 88 0.9 NNE 4 7 2 4 1024.6 1024.6 0.0
28/01:30am 11.0 10.4 8.9 87 1.0 NE 2 7 1 4 1024.9 1024.9 0.0
28/01:00am 11.7 10.5 9.4 86 1.2 E 6 6 3 3 1025.0 1025.0 0.0
28/12:30am 12.8 10.4 10.0 83 1.4 ESE 13 15 7 8 1025.1 1025.1 0.0
28/12:00am 14.2 11.7 11.0 81 1.7 SE 15 19 8 10 1025.3 1025.3 0.0
 
Date/Time
CDT
Temp
°C
App
Temp
°C
Dew
Point
Rel
Hum
%
Delta-T
°C
Wind Press
QNH
hPa
Press
MSL
hPa
Rain
since 9 am
mm
Dir
 
Spd
km/h
Gust
km/h
Spd
kts
Gust
kts
27/11:30pm 14.9 12.8 11.3 79 1.9 SE 13 17 7 9 1025.8 1025.8 0.0
27/11:00pm 15.7 12.4 11.5 76 2.3 SE 20 24 11 13 1025.9 1025.9 0.0
27/10:30pm 15.7 12.3 11.3 75 2.3 SSE 20 28 11 15 1025.7 1025.7 0.0
27/10:00pm 15.8 12.4 11.4 75 2.4 SSE 20 28 11 15 1025.7 1025.7 0.0
27/09:30pm 16.0 12.3 11.4 74 2.5 SSE 22 30 12 16 1025.2 1025.2 0.0
27/09:00pm 16.4 12.5 10.9 70 2.9 SSE 22 32 12 17 1025.3 1025.3 0.0
27/08:30pm 16.6 12.8 11.1 70 2.9 SSE 22 30 12 16 1025.2 1025.2 0.0
27/08:00pm 16.7 12.3 10.3 66 3.4 SSE 24 32 13 17 1025.2 1025.2 0.0
27/07:30pm 16.8 12.5 10.9 68 3.1 S 24 33 13 18 1025.3 1025.3 0.0
27/07:00pm 17.0 12.0 10.8 67 3.3 S 28 37 15 20 1025.1 1025.1 0.0
27/06:30pm 18.1 12.5 10.2 60 4.2 S 30 39 16 21 1025.0 1025.0 0.0
27/06:00pm 18.2 12.4 9.5 57 4.6 S 30 39 16 21 1024.8 1024.8 0.0
27/05:30pm 19.1 13.3 9.3 53 5.1 S 30 37 16 20 1024.8 1024.8 0.0
27/05:00pm 18.9 12.9 8.8 52 5.3 S 30 37 16 20 1024.8 1024.8 0.0
27/04:30pm 20.1 14.4 8.4 47 6.1 S 28 33 15 18 1025.2 1025.2 0.0
27/04:00pm 19.9 14.1 7.9 46 6.2 S 28 35 15 19 1025.3 1025.3 0.0
27/03:30pm 19.9 14.3 7.3 44 6.4 S 26 33 14 18 1025.5 1025.5 0.0
27/03:00pm 19.8 13.5 7.2 44 6.4 SSW 30 37 16 20 1025.9 1025.9 0.0
27/02:30pm 20.6 15.4 7.2 42 6.8 S 24 32 13 17 1026.6 1026.6 0.0
27/02:00pm 20.5 15.9 5.7 38 7.3 SE 19 33 10 18 1027.1 1027.1 0.0
27/01:30pm 20.5 16.1 4.5 35 7.7 ESE 17 26 9 14 1027.9 1027.9 0.0
27/01:00pm 20.3 15.5 4.8 36 7.5 E 19 28 10 15 1028.6 1028.6 0.0

Other Formats:

Comma delimited format used in spreadsheet applications
http://www.bom.gov.au/fwo/IDS60801/IDS60801.94653.axf

JavaScript Object Notation format (JSON) in row-major order
http://www.bom.gov.au/fwo/IDS60801/IDS60801.94653.json